OKBO2: North Canadian River at Britton Rd at OKC, OK

Data processed at Fri Mar 09 2018 23:24


All information presented herein is the property of the government of the United States of America and may be revised or deleted at any time without prior notice.
Dissemination of this information without the expressed written consent of the Public Affairs Office, Tulsa District U.S. Army Corps of Engineers is strictly prohibited.
These data are gathered electronically and, as presented, have not undergone any form of quality control. These data are not guaranteed to be valid or correct.
Go to home page.
Go to station list.

Upstream stations:

Downstream station:
Previous Day
Next Day
Current Day
    
SHEF ID:       OKBO2     North Canadian River at Britton
STATION TYPE:  

                STAGE  RIV-FLOW  WTR-TEMP   DIS-OXY   CONDUCT  BAT-LOAD
                   ft       cfs         F      mg/l   umho/cm      volt
              Ccp-Rev   Ccp-Rev   Ccp-Rev   Ccp-Rev   Ccp-Rev   Ccp-Rev
(US/Central)
03/07 00:00      6.95       131     48.67     10.52       801     12.83
03/07 01:00      7.07       157     48.33     10.41       775     12.83
03/07 02:00      7.11       166     48.15     10.30       751     12.77
03/07 03:00      7.10       164     47.59     10.13       740     12.77
03/07 04:00      7.06       155     46.63     10.06       736     12.71
03/07 05:00      7.03       148     45.73     10.10       735     12.71
03/07 06:00      6.98       137     44.92     10.08       731     12.65
03/07 07:00      6.94       129     44.40     10.06       727     12.65
03/07 08:00      6.88       117     43.63     10.17       724     12.89
03/07 09:00      6.84       110     43.30     10.44       721     14.59
03/07 10:00      6.77        97     43.83     10.83       717     14.59
03/07 11:00      6.74        92     45.03     11.25       714     14.12
03/07 12:00      6.72        88     46.80     11.72       711     14.00
03/07 13:00      6.67        80     48.49     12.08       709     14.06
03/07 14:00      6.64        75     50.32     12.50       709     13.94
03/07 15:00      6.59        68     52.11     12.77       708     13.88
03/07 16:00      6.57        65     53.91     13.12       706     13.83
03/07 17:00      6.55        62     54.41     13.21       705     13.71
03/07 18:00      6.55        62     54.50     12.97       705     13.65
03/07 19:00      6.51        56     54.09     12.46       707     13.42
03/07 20:00      6.48        52     53.38     11.79       709     13.07
03/07 21:00      6.46        49     52.74     11.29       711     12.95
03/07 22:00      6.45        48     51.91     10.83       713     12.89
03/07 23:00      6.45        48     50.99     10.37       716     12.83